createdAt,value
2023-04-18T10:51:46.655Z,954.8308
2023-04-18T10:52:48.288Z,954.8377
2023-04-18T10:53:50.727Z,954.8454
2023-04-18T10:54:51.564Z,954.8323
2023-04-18T10:55:54.217Z,954.8416
2023-04-18T10:56:54.841Z,954.8277
2023-04-18T10:57:57.577Z,954.8323
2023-04-18T10:58:58.199Z,954.8138
2023-04-18T10:59:59.769Z,954.8069
2023-04-18T11:01:01.646Z,954.8046
2023-04-18T11:02:03.162Z,954.7953
2023-04-18T11:03:05.613Z,954.7992
2023-04-18T11:04:06.405Z,954.7923
2023-04-18T11:05:08.049Z,954.8054
2023-04-18T11:06:09.664Z,954.8054
2023-04-18T11:07:11.407Z,954.8000
2023-04-18T11:08:13.050Z,954.7746
2023-04-18T11:09:14.642Z,954.7577
2023-04-18T11:10:16.202Z,954.7485
2023-04-18T11:11:17.920Z,954.7454
2023-04-18T11:12:19.858Z,954.7400
2023-04-18T11:13:21.857Z,954.7285
2023-04-18T11:14:22.912Z,954.7285
2023-04-18T11:15:24.583Z,954.7208
2023-04-18T11:16:26.300Z,954.6970
2023-04-18T11:17:27.927Z,954.6954
2023-04-18T11:18:29.581Z,954.6915
2023-04-18T11:19:31.206Z,954.7047
2023-04-18T11:20:32.838Z,954.7215
2023-04-18T11:21:34.454Z,954.7023
2023-04-18T11:22:36.831Z,954.6970
2023-04-18T11:23:37.742Z,954.7023
2023-04-18T11:24:39.456Z,954.6870
2023-04-18T11:25:41.003Z,954.6830
2023-04-18T11:26:42.792Z,954.6730
2023-04-18T11:27:44.408Z,954.6800
2023-04-18T11:28:46.035Z,954.6885
2023-04-18T11:29:47.698Z,954.6915
2023-04-18T11:30:49.374Z,954.6954
2023-04-18T11:31:51.038Z,954.7100
2023-04-18T11:32:52.708Z,954.7223
2023-04-18T11:33:54.192Z,954.7369
2023-04-18T11:34:56.775Z,954.7139
2023-04-18T11:35:57.539Z,954.7131
2023-04-18T11:36:59.189Z,954.7077
2023-04-18T11:38:00.871Z,954.7215
2023-04-18T11:39:02.582Z,954.7161
2023-04-18T11:40:04.206Z,954.7154
2023-04-18T11:41:05.785Z,954.7215
2023-04-18T11:42:07.499Z,954.7177
2023-04-18T11:43:09.166Z,954.7077
2023-04-18T11:44:10.776Z,954.6885
2023-04-18T11:45:12.374Z,954.6823
2023-04-18T11:46:14.098Z,954.6723
2023-04-18T11:47:15.665Z,954.6685
2023-04-18T11:48:17.448Z,954.6454
2023-04-18T11:49:19.012Z,954.6623
2023-04-18T11:50:20.634Z,954.6785
2023-04-18T11:51:22.367Z,954.6985
2023-04-18T11:52:23.909Z,954.7077
2023-04-18T11:53:25.620Z,954.7192
2023-04-18T11:54:27.241Z,954.7246
2023-04-18T11:55:28.876Z,954.7308
2023-04-18T11:56:30.499Z,954.7531
2023-04-18T11:57:32.131Z,954.7931
2023-04-18T11:58:33.773Z,954.7831
2023-04-18T11:59:35.494Z,954.7731
2023-04-18T12:00:37.054Z,954.7777
2023-04-18T12:01:38.724Z,954.7923
2023-04-18T12:02:40.494Z,954.8292
2023-04-18T12:03:42.260Z,954.8185
2023-04-18T12:04:44.165Z,954.7992
2023-04-18T12:05:45.594Z,954.7854
2023-04-18T12:06:47.018Z,954.7961
2023-04-18T12:07:48.603Z,954.7953
2023-04-18T12:08:51.207Z,954.7900
2023-04-18T12:09:51.936Z,954.7931
2023-04-18T12:10:54.259Z,954.7908
2023-04-18T12:11:55.204Z,954.7861
2023-04-18T12:12:56.818Z,954.7961
2023-04-18T12:13:58.444Z,954.8192
2023-04-18T12:15:00.292Z,954.8416
2023-04-18T12:16:01.805Z,954.8347
2023-04-18T12:17:03.310Z,954.8123
2023-04-18T12:18:05.810Z,954.8339
2023-04-18T12:19:06.627Z,954.8392
2023-04-18T12:20:08.322Z,954.8130
2023-04-18T12:21:09.933Z,954.8046
2023-04-18T12:22:12.221Z,954.8146
2023-04-18T12:23:13.450Z,954.8085
2023-04-18T12:24:16.626Z,954.8162
2023-04-18T12:25:16.605Z,954.8239
2023-04-18T12:26:18.191Z,954.8277
2023-04-18T12:27:19.858Z,954.8069
2023-04-18T12:28:21.487Z,954.8000
2023-04-18T12:29:23.153Z,954.8000
2023-04-18T12:30:24.846Z,954.7900
2023-04-18T12:31:26.457Z,954.7908
2023-04-18T12:32:28.068Z,954.7785
2023-04-18T12:33:29.729Z,954.7570
2023-04-18T12:34:31.310Z,954.7277
2023-04-18T12:35:33.394Z,954.7246
2023-04-18T12:36:34.636Z,954.7253
2023-04-18T12:37:36.270Z,954.7015
2023-04-18T12:38:37.914Z,954.7069
2023-04-18T12:39:39.590Z,954.7361
2023-04-18T12:40:41.252Z,954.7308
2023-04-18T12:41:42.871Z,954.7208
2023-04-18T12:42:44.494Z,954.7277
2023-04-18T12:43:46.158Z,954.7077
2023-04-18T12:44:48.044Z,954.7100
2023-04-18T12:45:49.460Z,954.7230
2023-04-18T12:46:51.210Z,954.7092
2023-04-18T12:47:52.818Z,954.6862
2023-04-18T12:48:54.363Z,954.6923
2023-04-18T12:49:55.974Z,954.7039
2023-04-18T12:50:57.731Z,954.6885
2023-04-18T12:51:59.274Z,954.6600
2023-04-18T12:53:00.882Z,954.6569
2023-04-18T12:54:02.606Z,954.6923
2023-04-18T12:55:04.204Z,954.7408
2023-04-18T12:56:05.944Z,954.7400
2023-04-18T12:57:07.482Z,954.7192
2023-04-18T12:58:09.197Z,954.7346
2023-04-18T12:59:10.780Z,954.7423
2023-04-18T13:00:12.456Z,954.7408
2023-04-18T13:01:14.247Z,954.7577
2023-04-18T13:02:15.850Z,954.7577
2023-04-18T13:03:17.400Z,954.7392
2023-04-18T13:04:19.236Z,954.7331
2023-04-18T13:05:21.388Z,954.7169
2023-04-18T13:06:22.410Z,954.7200
2023-04-18T13:07:23.927Z,954.7131
2023-04-18T13:08:25.605Z,954.7047
2023-04-18T13:09:27.213Z,954.6954
2023-04-18T13:10:28.891Z,954.6885
2023-04-18T13:11:30.870Z,954.6938
2023-04-18T13:12:32.178Z,954.6708
2023-04-18T13:13:35.604Z,954.6462
2023-04-18T13:14:35.488Z,954.6308
2023-04-18T13:15:37.097Z,954.5992
2023-04-18T13:16:39.762Z,954.5931
2023-04-18T13:17:40.485Z,954.6008
2023-04-18T13:18:42.066Z,954.5877
2023-04-18T13:19:43.716Z,954.5854
2023-04-18T13:20:45.410Z,954.5854
2023-04-18T13:21:49.126Z,954.6392
2023-04-18T13:22:48.775Z,954.6246
2023-04-18T13:23:50.328Z,954.6046
2023-04-18T13:24:51.924Z,954.6077
2023-04-18T13:25:53.597Z,954.5869
2023-04-18T13:26:55.241Z,954.6015
2023-04-18T13:27:57.465Z,954.5615
2023-04-18T13:28:58.524Z,954.5569
2023-04-18T13:30:00.205Z,954.5577
2023-04-18T13:31:01.801Z,954.5746
2023-04-18T13:32:03.593Z,954.5969
2023-04-18T13:33:05.224Z,954.5461
2023-04-18T13:34:06.830Z,954.5500
2023-04-18T13:35:08.424Z,954.5585
2023-04-18T13:36:10.124Z,954.5454
2023-04-18T13:37:11.773Z,954.5608
2023-04-18T13:38:13.415Z,954.5777
2023-04-18T13:39:15.126Z,954.5630
2023-04-18T13:40:16.687Z,954.5562
2023-04-18T13:41:18.291Z,954.5523
2023-04-18T13:42:20.005Z,954.5361
2023-04-18T13:43:21.652Z,954.5292
2023-04-18T13:44:23.271Z,954.5054
2023-04-18T13:45:24.842Z,954.4746
2023-04-18T13:46:26.631Z,954.4646
2023-04-18T13:47:28.395Z,954.4639
2023-04-18T13:48:29.892Z,954.4631
2023-04-18T13:49:31.492Z,954.4846
2023-04-18T13:50:33.166Z,954.4700
2023-04-18T13:51:34.818Z,954.4639
2023-04-18T13:52:36.503Z,954.4615
2023-04-18T13:53:38.108Z,954.4569
2023-04-18T13:54:39.722Z,954.4731
2023-04-18T13:55:41.372Z,954.4885
2023-04-18T13:56:43.044Z,954.4954
2023-04-18T13:57:44.709Z,954.4769
2023-04-18T13:58:46.455Z,954.4677
2023-04-18T13:59:47.961Z,954.4600
2023-04-18T14:00:49.578Z,954.4477
2023-04-18T14:01:51.260Z,954.4700
2023-04-18T14:02:53.576Z,954.4838
2023-04-18T14:03:54.761Z,954.4808
2023-04-18T14:04:56.282Z,954.4562
2023-04-18T14:05:57.856Z,954.4400
2023-04-18T14:06:59.473Z,954.4423
2023-04-18T14:08:01.160Z,954.4454
2023-04-18T14:09:03.758Z,954.4370
2023-04-18T14:10:05.377Z,954.4300
2023-04-18T14:11:06.103Z,954.4408
2023-04-18T14:12:07.889Z,954.4246
2023-04-18T14:13:09.380Z,954.4277
2023-04-18T14:14:11.100Z,954.4362
2023-04-18T14:15:12.740Z,954.4323
2023-04-18T14:16:14.351Z,954.4315
2023-04-18T14:17:15.950Z,954.4146
2023-04-18T14:18:17.640Z,954.4238
2023-04-18T14:19:19.319Z,954.4161
2023-04-18T14:20:21.437Z,954.3692
2023-04-18T14:21:22.494Z,954.3523
2023-04-18T14:22:24.213Z,954.3446
2023-04-18T14:23:25.910Z,954.3223
2023-04-18T14:24:27.521Z,954.2892
2023-04-18T14:25:29.171Z,954.2585
2023-04-18T14:26:30.843Z,954.2577
2023-04-18T14:27:32.421Z,954.2715
2023-04-18T14:28:34.134Z,954.3031
2023-04-18T14:29:36.364Z,954.3138
2023-04-18T14:30:37.456Z,954.3170
2023-04-18T14:31:39.104Z,954.3469
2023-04-18T14:32:40.806Z,954.3385
2023-04-18T14:33:42.317Z,954.3369
2023-04-18T14:34:44.087Z,954.3439
2023-04-18T14:35:45.707Z,954.3138
2023-04-18T14:36:47.278Z,954.3239
2023-04-18T14:37:48.924Z,954.3592
2023-04-18T14:38:50.646Z,954.3692
2023-04-18T14:39:52.300Z,954.3630
2023-04-18T14:40:54.010Z,954.3746
2023-04-18T14:41:55.504Z,954.3738
2023-04-18T14:42:57.204Z,954.3746
2023-04-18T14:43:58.801Z,954.3585
2023-04-18T14:45:00.552Z,954.3638
2023-04-18T14:46:02.174Z,954.3585
2023-04-18T14:47:03.873Z,954.3484
2023-04-18T14:48:06.333Z,954.3461
2023-04-18T14:49:07.061Z,954.3369
2023-04-18T14:50:08.812Z,954.3308
2023-04-18T14:51:10.416Z,954.3531
2023-04-18T14:52:12.068Z,954.3515
2023-04-18T14:53:13.656Z,954.3400
2023-04-18T14:54:15.356Z,954.3285
2023-04-18T14:55:16.991Z,954.3162
2023-04-18T14:56:18.739Z,954.3400
2023-04-18T14:57:20.240Z,954.3130
2023-04-18T14:58:21.920Z,954.3185
2023-04-18T14:59:23.535Z,954.3354
2023-04-18T15:00:25.205Z,954.3362
2023-04-18T15:01:26.921Z,954.3454
2023-04-18T15:02:28.578Z,954.3477
2023-04-18T15:03:31.043Z,954.3446
2023-04-18T15:04:31.906Z,954.3431
2023-04-18T15:05:33.501Z,954.3630
2023-04-18T15:06:35.527Z,954.3715
2023-04-18T15:07:36.737Z,954.3931
2023-04-18T15:08:38.388Z,954.3823
2023-04-18T15:09:40.109Z,954.4116
2023-04-18T15:10:41.720Z,954.4161
2023-04-18T15:11:43.610Z,954.4370
2023-04-18T15:12:44.963Z,954.4116
2023-04-18T15:13:46.681Z,954.4084
2023-04-18T15:14:48.248Z,954.3992
2023-04-18T15:15:50.482Z,954.4131
2023-04-18T15:16:51.687Z,954.3892
2023-04-18T15:17:53.314Z,954.3800
2023-04-18T15:18:54.898Z,954.3638
2023-04-18T15:19:56.495Z,954.3516
2023-04-18T15:20:58.214Z,954.3531
2023-04-18T15:22:00.556Z,954.3862
2023-04-18T15:23:01.493Z,954.3654
2023-04-18T15:24:03.099Z,954.3577
2023-04-18T15:25:04.821Z,954.3954
2023-04-18T15:26:06.485Z,954.4100
2023-04-18T15:27:08.116Z,954.4138
2023-04-18T15:28:09.713Z,954.4308
2023-04-18T15:29:11.385Z,954.4431
2023-04-18T15:30:13.061Z,954.4515
2023-04-18T15:31:14.774Z,954.4446
2023-04-18T15:32:16.446Z,954.4462
2023-04-18T15:33:17.998Z,954.4285
2023-04-18T15:34:19.675Z,954.3954
2023-04-18T15:35:21.900Z,954.4069
2023-04-18T15:36:23.037Z,954.4153
2023-04-18T15:37:24.659Z,954.4061
2023-04-18T15:38:26.228Z,954.4092
2023-04-18T15:39:27.831Z,954.4192
2023-04-18T15:40:29.578Z,954.4292
2023-04-18T15:41:31.220Z,954.4462
2023-04-18T15:42:32.966Z,954.4539
2023-04-18T15:43:34.528Z,954.4492
2023-04-18T15:44:36.176Z,954.4300
2023-04-18T15:45:37.858Z,954.4500
2023-04-18T15:46:41.410Z,954.4362
2023-04-18T15:47:42.101Z,954.4400
2023-04-18T15:48:42.776Z,954.4623
2023-04-18T15:49:44.473Z,954.4808
2023-04-18T15:50:46.041Z,954.4838
2023-04-18T15:51:47.798Z,954.4700
2023-04-18T15:52:49.411Z,954.4577
2023-04-18T15:53:51.008Z,954.4777
2023-04-18T15:54:52.604Z,954.4854
2023-04-18T15:55:54.363Z,954.4792
2023-04-18T15:56:55.925Z,954.4977
2023-04-18T15:57:57.583Z,954.4938
2023-04-18T15:58:59.266Z,954.4969
2023-04-18T16:00:00.941Z,954.4946
2023-04-18T16:01:02.562Z,954.5485
2023-04-18T16:02:05.081Z,954.5361
2023-04-18T16:03:05.957Z,954.5461
2023-04-18T16:04:07.619Z,954.5731
2023-04-18T16:05:09.908Z,954.6146
2023-04-18T16:06:10.778Z,954.6230
2023-04-18T16:07:12.444Z,954.6392
2023-04-18T16:08:14.066Z,954.6462
2023-04-18T16:09:15.709Z,954.6315
2023-04-18T16:10:17.347Z,954.6339
2023-04-18T16:11:18.970Z,954.6177
2023-04-18T16:12:20.748Z,954.6262
2023-04-18T16:13:22.284Z,954.6485
2023-04-18T16:14:23.947Z,954.6346
2023-04-18T16:15:25.528Z,954.6408
2023-04-18T16:16:27.211Z,954.6447
2023-04-18T16:17:28.997Z,954.6623
2023-04-18T16:18:30.534Z,954.6730
2023-04-18T16:19:32.943Z,954.6761
2023-04-18T16:20:33.833Z,954.6915
2023-04-18T16:21:35.416Z,954.7054
2023-04-18T16:22:37.104Z,954.7077
2023-04-18T16:23:38.712Z,954.7000
2023-04-18T16:24:42.011Z,954.7161
2023-04-18T16:25:41.998Z,954.7115
2023-04-18T16:26:43.596Z,954.7139
2023-04-18T16:27:45.298Z,954.7015
2023-04-18T16:28:46.874Z,954.7231
2023-04-18T16:29:48.502Z,954.7562
2023-04-18T16:30:50.181Z,954.7523
2023-04-18T16:31:52.067Z,954.7585
2023-04-18T16:32:54.159Z,954.7546
2023-04-18T16:33:55.345Z,954.7754
2023-04-18T16:34:57.885Z,954.7792
2023-04-18T16:35:58.509Z,954.7946
2023-04-18T16:37:01.177Z,954.7953
2023-04-18T16:38:03.664Z,954.7892
2023-04-18T16:39:08.189Z,954.8014
2023-04-18T16:40:09.878Z,954.8177
2023-04-18T16:41:11.561Z,954.8162
2023-04-18T16:42:15.653Z,954.8369
2023-04-18T16:43:14.776Z,954.8269
2023-04-18T16:44:16.452Z,954.8477
2023-04-18T16:45:17.962Z,954.8700
2023-04-18T16:46:19.723Z,954.8839
2023-04-18T16:47:21.277Z,954.8839
2023-04-18T16:48:22.983Z,954.9131
2023-04-18T16:49:24.590Z,954.9154
2023-04-18T16:50:26.273Z,954.9039
2023-04-18T16:51:27.885Z,954.9116
2023-04-18T16:52:29.543Z,954.9153
2023-04-18T16:53:31.518Z,954.9230
2023-04-18T16:54:32.836Z,954.9330
2023-04-18T16:55:34.470Z,954.9400
2023-04-18T16:56:36.160Z,954.9500
2023-04-18T16:57:37.834Z,954.9385
2023-04-18T16:58:39.380Z,954.9454
2023-04-18T16:59:40.997Z,954.9454
2023-04-18T17:00:42.653Z,954.9723
2023-04-18T17:01:44.329Z,954.9869
2023-04-18T17:02:46.007Z,954.9808
2023-04-18T17:03:47.704Z,954.9854
2023-04-18T17:04:49.307Z,954.9885
2023-04-18T17:05:50.817Z,954.9869
2023-04-18T17:06:52.552Z,954.9892
2023-04-18T17:07:54.107Z,955.0070
2023-04-18T17:08:55.960Z,954.9908
2023-04-18T17:09:57.484Z,955.0070
2023-04-18T17:10:59.191Z,955.0239
2023-04-18T17:12:00.785Z,955.0092
2023-04-18T17:13:02.694Z,955.0239
2023-04-18T17:14:04.145Z,955.0262
2023-04-18T17:15:06.026Z,955.0231
2023-04-18T17:16:07.429Z,955.0316
2023-04-18T17:17:09.051Z,955.0223
2023-04-18T17:18:10.796Z,955.0592
2023-04-18T17:19:12.526Z,955.0746
2023-04-18T17:20:14.983Z,955.0800
2023-04-18T17:21:15.663Z,955.0862
2023-04-18T17:22:17.277Z,955.0939
2023-04-18T17:23:18.977Z,955.1130
2023-04-18T17:24:20.648Z,955.0984
2023-04-18T17:25:22.481Z,955.1085
2023-04-18T17:26:23.917Z,955.1385
2023-04-18T17:27:25.571Z,955.1415
2023-04-18T17:28:27.217Z,955.1615
2023-04-18T17:29:28.879Z,955.1447
2023-04-18T17:30:30.970Z,955.1569
2023-04-18T17:31:32.262Z,955.1300
2023-04-18T17:32:33.908Z,955.1439
2023-04-18T17:33:36.406Z,955.1669
2023-04-18T17:34:37.165Z,955.1754
2023-04-18T17:35:38.797Z,955.1808
2023-04-18T17:36:40.416Z,955.2031
2023-04-18T17:37:42.106Z,955.2054
2023-04-18T17:38:43.764Z,955.2115
2023-04-18T17:39:45.341Z,955.2146
2023-04-18T17:40:47.486Z,955.2154
2023-04-18T17:41:48.573Z,955.2308
2023-04-18T17:42:50.327Z,955.2531
2023-04-18T17:43:51.946Z,955.2700
2023-04-18T17:44:53.651Z,955.2854
2023-04-18T17:45:55.318Z,955.2877
2023-04-18T17:46:56.978Z,955.3030
2023-04-18T17:47:58.793Z,955.3030
2023-04-18T17:49:00.553Z,955.2969
2023-04-18T17:50:02.024Z,955.2969
2023-04-18T17:51:03.685Z,955.3062
2023-04-18T17:52:05.645Z,955.3200
2023-04-18T17:53:06.936Z,955.3331
2023-04-18T17:54:08.686Z,955.3431
2023-04-18T17:55:10.358Z,955.3446
2023-04-18T17:56:12.102Z,955.3608
2023-04-18T17:57:13.513Z,955.3823
2023-04-18T17:58:15.291Z,955.3792
2023-04-18T17:59:16.970Z,955.3885
2023-04-18T18:00:18.534Z,955.4185
2023-04-18T18:01:20.182Z,955.4438
2023-04-18T18:02:23.243Z,955.4562
2023-04-18T18:03:23.417Z,955.4500
2023-04-18T18:04:28.180Z,955.4584
2023-04-18T18:05:26.684Z,955.4600
2023-04-18T18:06:28.367Z,955.4631
2023-04-18T18:07:29.977Z,955.4608
2023-04-18T18:08:31.618Z,955.5023
2023-04-18T18:09:33.198Z,955.5131
2023-04-18T18:10:34.954Z,955.5215
2023-04-18T18:11:36.658Z,955.5323
2023-04-18T18:12:38.204Z,955.5461
2023-04-18T18:13:39.782Z,955.5369
2023-04-18T18:14:41.505Z,955.5746
2023-04-18T18:15:43.216Z,955.5831
2023-04-18T18:16:44.866Z,955.5808
2023-04-18T18:17:46.494Z,955.5946
2023-04-18T18:18:48.074Z,955.5769
2023-04-18T18:19:49.734Z,955.5723
2023-04-18T18:20:51.370Z,955.5908
2023-04-18T18:21:53.089Z,955.5800
2023-04-18T18:22:54.662Z,955.5723
2023-04-18T18:23:56.324Z,955.5831
2023-04-18T18:24:57.969Z,955.5815
2023-04-18T18:25:59.660Z,955.5954
2023-04-18T18:27:01.279Z,955.6262
2023-04-18T18:28:02.903Z,955.6277
2023-04-18T18:29:04.511Z,955.6323
2023-04-18T18:30:06.211Z,955.6539
2023-04-18T18:31:07.908Z,955.6385
2023-04-18T18:32:09.523Z,955.6408
2023-04-18T18:33:11.983Z,955.6638
2023-04-18T18:34:12.771Z,955.6892
2023-04-18T18:35:14.462Z,955.7000
2023-04-18T18:36:16.142Z,955.7269
2023-04-18T18:37:17.704Z,955.7438
2023-04-18T18:38:19.359Z,955.7585
2023-04-18T18:39:21.094Z,955.7570
2023-04-18T18:40:22.682Z,955.7515
2023-04-18T18:41:24.646Z,955.7623
2023-04-18T18:42:25.968Z,955.7808
2023-04-18T18:43:27.593Z,955.7800
2023-04-18T18:44:29.204Z,955.7985
2023-04-18T18:45:30.887Z,955.7869
2023-04-18T18:46:32.685Z,955.8023
2023-04-18T18:47:34.922Z,955.8369
2023-04-18T18:48:35.816Z,955.8538
2023-04-18T18:49:37.483Z,955.8546
2023-04-18T18:50:39.133Z,955.8815
2023-04-18T18:51:40.853Z,955.8931
2023-04-18T18:52:42.435Z,955.9231
2023-04-18T18:53:45.160Z,955.9338
2023-04-18T18:54:45.716Z,955.9470
2023-04-18T18:55:47.290Z,955.9600
2023-04-18T18:56:49.024Z,955.9577
2023-04-18T18:57:50.694Z,955.9808
2023-04-18T18:58:52.439Z,955.9753
2023-04-18T18:59:55.721Z,955.9823
2023-04-18T19:00:55.575Z,955.9985
2023-04-18T19:01:57.292Z,956.0208
2023-04-18T19:02:59.713Z,956.0246
2023-04-18T19:04:00.710Z,956.0662
2023-04-18T19:05:02.317Z,956.0638
2023-04-18T19:06:03.728Z,956.1046
2023-04-18T19:07:05.449Z,956.1208
2023-04-18T19:08:07.197Z,956.1208
2023-04-18T19:09:08.757Z,956.1370
2023-04-18T19:10:10.370Z,956.1608
2023-04-18T19:11:12.016Z,956.1592
2023-04-18T19:12:13.738Z,956.1569
2023-04-18T19:13:15.397Z,956.1584
2023-04-18T19:14:17.019Z,956.1623
2023-04-18T19:15:18.567Z,956.1608
2023-04-18T19:16:20.347Z,956.1685
2023-04-18T19:17:22.037Z,956.1792
2023-04-18T19:18:23.631Z,956.1800
2023-04-18T19:19:25.136Z,956.1923
2023-04-18T19:20:28.721Z,956.1862
2023-04-18T19:21:28.513Z,956.2015
2023-04-18T19:22:30.230Z,956.1962
2023-04-18T19:23:32.096Z,956.1854
2023-04-18T19:24:33.448Z,956.1723
2023-04-18T19:25:35.048Z,956.1900
2023-04-18T19:26:36.727Z,956.1946
2023-04-18T19:27:38.414Z,956.2000
2023-04-18T19:28:40.156Z,956.2084
2023-04-18T19:29:41.679Z,956.2115
2023-04-18T19:30:43.314Z,956.2062
2023-04-18T19:31:44.942Z,956.2161
2023-04-18T19:32:46.695Z,956.2131
2023-04-18T19:33:48.327Z,956.2361
2023-04-18T19:34:49.905Z,956.2423
2023-04-18T19:35:51.610Z,956.2462
2023-04-18T19:36:53.237Z,956.2377
2023-04-18T19:37:54.911Z,956.2446
2023-04-18T19:38:56.611Z,956.2508
2023-04-18T19:39:58.216Z,956.2631
2023-04-18T19:40:59.803Z,956.2685
2023-04-18T19:42:01.400Z,956.2839
2023-04-18T19:43:03.619Z,956.2946
2023-04-18T19:44:04.773Z,956.2869
2023-04-18T19:45:06.432Z,956.3008
2023-04-18T19:46:08.199Z,956.2969
2023-04-18T19:47:09.717Z,956.2992
2023-04-18T19:48:11.404Z,956.3023
2023-04-18T19:49:13.308Z,956.3030
2023-04-18T19:50:14.723Z,956.3015
2023-04-18T19:51:16.272Z,956.3100
2023-04-18T19:52:18.007Z,956.3170
2023-04-18T19:53:20.301Z,956.3154
2023-04-18T19:54:21.972Z,956.3015
2023-04-18T19:55:23.024Z,956.3146
2023-04-18T19:56:24.532Z,956.3177
2023-04-18T19:57:26.256Z,956.3100
2023-04-18T19:58:27.819Z,956.3231
2023-04-18T19:59:29.515Z,956.3277
2023-04-18T20:00:31.134Z,956.3130
2023-04-18T20:01:32.854Z,956.3138
2023-04-18T20:02:34.640Z,956.2992
2023-04-18T20:03:36.276Z,956.3100
2023-04-18T20:04:37.985Z,956.3170
2023-04-18T20:05:39.409Z,956.3492
2023-04-18T20:06:41.009Z,956.3569
2023-04-18T20:07:42.676Z,956.3623
2023-04-18T20:08:44.326Z,956.3638
2023-04-18T20:09:45.957Z,956.3877
2023-04-18T20:10:47.601Z,956.3654
2023-04-18T20:11:49.261Z,956.3800
2023-04-18T20:12:50.843Z,956.3939
2023-04-18T20:13:52.598Z,956.4077
2023-04-18T20:14:54.175Z,956.4138
2023-04-18T20:15:55.834Z,956.4123
2023-04-18T20:16:57.568Z,956.4185
2023-04-18T20:17:59.256Z,956.4123
2023-04-18T20:19:00.803Z,956.4016
2023-04-18T20:20:02.380Z,956.4161
2023-04-18T20:21:04.087Z,956.4131
2023-04-18T20:22:05.697Z,956.4208
2023-04-18T20:23:07.309Z,956.4330
2023-04-18T20:24:09.026Z,956.4470
2023-04-18T20:25:10.653Z,956.4547
2023-04-18T20:26:13.094Z,956.4508
2023-04-18T20:27:13.890Z,956.4469
2023-04-18T20:28:15.581Z,956.4431
2023-04-18T20:29:17.285Z,956.4385
2023-04-18T20:30:18.856Z,956.4477
2023-04-18T20:31:20.574Z,956.4385
2023-04-18T20:32:22.139Z,956.4323
2023-04-18T20:33:23.825Z,956.4500
2023-04-18T20:34:25.506Z,956.4477
2023-04-18T20:35:27.163Z,956.4146
2023-04-18T20:36:28.777Z,956.4169
2023-04-18T20:37:30.445Z,956.4177
2023-04-18T20:38:32.092Z,956.4039
2023-04-18T20:39:33.776Z,956.4084
2023-04-18T20:40:35.354Z,956.4246
2023-04-18T20:41:37.022Z,956.4238
2023-04-18T20:42:38.637Z,956.4200
2023-04-18T20:43:40.370Z,956.4215
2023-04-18T20:44:42.074Z,956.4261
2023-04-18T20:45:43.650Z,956.4431
2023-04-18T20:46:45.274Z,956.4523
2023-04-18T20:47:46.957Z,956.4577
2023-04-18T20:48:48.510Z,956.4738
2023-04-18T20:49:50.165Z,956.4892
2023-04-18T20:50:51.947Z,956.4969
2023-04-18T20:51:53.424Z,956.4923
2023-04-18T20:52:55.162Z,956.4892
2023-04-18T20:53:56.716Z,956.4823
2023-04-18T20:54:58.477Z,956.4861
2023-04-18T20:56:00.086Z,956.4830
2023-04-18T20:57:01.719Z,956.4892
2023-04-18T20:58:03.335Z,956.4954
2023-04-18T20:59:05.068Z,956.5008
2023-04-18T21:00:06.685Z,956.5046
2023-04-18T21:01:08.356Z,956.5092
2023-04-18T21:02:10.089Z,956.5154
2023-04-18T21:03:11.750Z,956.5146
2023-04-18T21:04:13.680Z,956.5247
2023-04-18T21:05:14.971Z,956.5331
2023-04-18T21:06:16.506Z,956.5485
2023-04-18T21:07:18.199Z,956.5392
2023-04-18T21:08:19.820Z,956.5300
2023-04-18T21:09:21.488Z,956.5408
2023-04-18T21:10:23.161Z,956.5523
2023-04-18T21:11:24.790Z,956.5523
2023-04-18T21:12:26.351Z,956.5523
2023-04-18T21:13:28.083Z,956.5577
2023-04-18T21:14:29.681Z,956.5754
2023-04-18T21:15:31.401Z,956.5746
2023-04-18T21:16:33.141Z,956.5815
2023-04-18T21:17:34.692Z,956.5892
2023-04-18T21:18:36.541Z,956.5869
2023-04-18T21:19:37.977Z,956.5946
2023-04-18T21:20:39.672Z,956.6108
2023-04-18T21:21:41.259Z,956.6038
2023-04-18T21:22:42.911Z,956.6085
2023-04-18T21:23:44.542Z,956.6077
2023-04-18T21:24:46.190Z,956.6130
2023-04-18T21:25:47.903Z,956.6185
2023-04-18T21:26:49.441Z,956.6192
2023-04-18T21:27:51.149Z,956.6230
2023-04-18T21:28:52.755Z,956.6277
2023-04-18T21:29:54.440Z,956.6308
2023-04-18T21:30:56.164Z,956.6492
2023-04-18T21:31:57.785Z,956.6539
2023-04-18T21:32:59.377Z,956.6631
2023-04-18T21:34:01.068Z,956.6592
2023-04-18T21:35:03.605Z,956.6531
2023-04-18T21:36:04.353Z,956.6408
2023-04-18T21:37:05.962Z,956.6377
2023-04-18T21:38:07.538Z,956.6362
2023-04-18T21:39:09.241Z,956.6362
2023-04-18T21:40:10.952Z,956.6392
2023-04-18T21:41:12.612Z,956.6454
2023-04-18T21:42:14.110Z,956.6400
2023-04-18T21:43:15.841Z,956.6392
2023-04-18T21:44:17.477Z,956.6477
2023-04-18T21:45:19.194Z,956.6554
2023-04-18T21:46:24.220Z,956.6654
2023-04-18T21:47:22.402Z,956.6669
2023-04-18T21:48:24.013Z,956.6723
2023-04-18T21:49:25.643Z,956.6792
2023-04-18T21:50:27.306Z,956.6892
2023-04-18T21:51:29.113Z,956.6870
2023-04-18T21:52:30.597Z,956.6908
2023-04-18T21:53:32.259Z,956.6885
2023-04-18T21:54:33.881Z,956.6838
2023-04-18T21:55:35.561Z,956.6823
2023-04-18T21:56:37.224Z,956.6915
2023-04-18T21:57:38.826Z,956.7062
2023-04-18T21:58:40.453Z,956.7215
2023-04-18T21:59:42.209Z,956.7238
2023-04-18T22:00:43.846Z,956.7354
2023-04-18T22:01:45.449Z,956.7346
2023-04-18T22:02:47.313Z,956.7323
2023-04-18T22:03:48.888Z,956.7246
2023-04-18T22:04:50.332Z,956.7023
2023-04-18T22:05:52.548Z,956.6938
2023-04-18T22:06:53.682Z,956.6877
2023-04-18T22:07:58.458Z,956.6769
2023-04-18T22:08:56.928Z,956.6815
2023-04-18T22:09:58.606Z,956.6808
2023-04-18T22:11:01.142Z,956.6738
2023-04-18T22:12:01.958Z,956.6846
2023-04-18T22:13:03.601Z,956.6830
2023-04-18T22:14:05.216Z,956.6938
2023-04-18T22:15:06.817Z,956.6977
2023-04-18T22:16:09.101Z,956.6870
2023-04-18T22:17:10.180Z,956.6800
2023-04-18T22:18:11.792Z,956.6915
2023-04-18T22:19:13.410Z,956.6862
2023-04-18T22:20:15.079Z,956.6938
2023-04-18T22:21:16.734Z,956.6815
2023-04-18T22:22:18.408Z,956.6830
2023-04-18T22:23:20.050Z,956.6792
2023-04-18T22:24:21.802Z,956.6777
2023-04-18T22:25:23.322Z,956.6723
2023-04-18T22:26:25.006Z,956.6723
2023-04-18T22:27:27.122Z,956.6723
2023-04-18T22:28:28.291Z,956.6708
2023-04-18T22:29:29.895Z,956.6815
2023-04-18T22:30:31.686Z,956.6900
2023-04-18T22:31:34.061Z,956.7047
2023-04-18T22:32:34.938Z,956.7015
2023-04-18T22:33:36.532Z,956.7246
2023-04-18T22:34:38.104Z,956.7323
2023-04-18T22:35:39.807Z,956.7469
2023-04-18T22:36:41.439Z,956.7631
2023-04-18T22:37:43.599Z,956.7747
2023-04-18T22:38:44.754Z,956.7754
2023-04-18T22:39:46.375Z,956.7592
2023-04-18T22:40:48.007Z,956.7708
2023-04-18T22:41:49.722Z,956.7500
2023-04-18T22:42:51.336Z,956.7485
2023-04-18T22:43:52.992Z,956.7531
2023-04-18T22:44:54.633Z,956.7577
2023-04-18T22:45:56.353Z,956.7747
2023-04-18T22:46:57.974Z,956.7938
2023-04-18T22:48:00.628Z,956.7938
2023-04-18T22:49:01.360Z,956.7985
2023-04-18T22:50:03.090Z,956.8069
2023-04-18T22:51:04.686Z,956.7992
2023-04-18T22:52:06.342Z,956.8054
2023-04-18T22:53:08.082Z,956.8062
2023-04-18T22:54:09.649Z,956.8062
2023-04-18T22:55:11.369Z,956.7915